• Join FlightAware (Why Join?)
  • Login
  • US Flag 
11:14PM EDT


 

Airport Tracker/Info


-or-


 

Live Flight TrackerFlight Track Log ✈ UAL906 ✈ 21-Jul-2013 ✈ EDDF / FRA - KORD

Flight Track Log - Related Links

Times and Time Zones

All times are in EDT time to prevent confusion due to time zone crossing. See the UAL906 flight status page for this flight to view local times or setup timezone preferences in your user account.

Time Position Orientation Groundspeed Altitude Reporting Facility
EDT Latitude Longitude Course Direction KTS MPH feet Rate Location/Type
06:41AM 50.0470 8.5680 295° West  Level FlightAware
06:46AM 50.0470 8.5690 90° East 10 12  Level FlightAware
06:47AM 50.0470 8.5700 90° East 11 13  Level FlightAware
06:48AM 50.0470 8.5690 270° West 11 13  Level FlightAware
06:51AM 50.1946 8.1775 308° West  Level FlightAware Approximate
06:52AM 50.2505 8.0156 308° West  Level FlightAware Approximate
06:52AM 50.0460 8.5690 308° West 13 15  Level FlightAware
06:53AM 50.0450 8.5690 180° South 27 31 60 Level FlightAware
06:53AM 50.0440 8.5680 213° Southwest 20 23 60 Level FlightAware
06:54AM 50.0430 8.5680 180° South 20 23 60 Level FlightAware
06:54AM 50.0420 8.5670 213° Southwest 27 31 60 Level FlightAware
06:55AM 50.0420 8.5650 270° West 16 18 60 Level FlightAware
06:55AM 50.0410 8.5610 249° West 20 23 60 Level FlightAware
06:56AM 50.0400 8.5560 253° West 33 38 60 Level FlightAware
06:56AM 50.0390 8.5540 232° Southwest 34 39 60 Level FlightAware
06:57AM 50.0390 8.5510 270° West 17 20 60 Level FlightAware
06:57AM 50.0380 8.5490 232° Southwest 19 22 60 Level FlightAware
06:57AM 50.0370 8.5450 249° West 22 25 60 Level FlightAware
06:58AM 50.0360 8.5420 243° Southwest 20 23 60 Level FlightAware
06:58AM 50.0350 8.5380 249° West 15 17 60 Level FlightAware
06:59AM 50.0350 8.5360 270° West 25 29 60 Level FlightAware
06:59AM 50.0350 8.5350 270° West 2 2 120 Level FlightAware
07:00AM 50.0340 8.5340 213° Southwest 16 18 120 Level FlightAware
07:02AM 50.0340 8.5330 270° West 16 18 120 Level FlightAware
07:03AM 50.0330 8.5340 147° Southeast 2 2 180 Level FlightAware
07:04AM 50.0330 8.5350 90° East 19 22 240 Level FlightAware
07:06AM 50.0330 8.5360 90° East 20 23 360 Level FlightAware
07:06AM 50.0340 8.5430 77° East 88 101 840 Level FlightAware
07:06AM 50.0410 8.5690 67° East 175 201 1,140 Level FlightAware
07:07AM 50.0480 8.5990 70° East 188 216 1,000 2,340 Climbing FlightAware
07:07AM 50.0560 8.6340 70° East 190 219 2,000 2,160 Climbing FlightAware
07:08AM 50.0650 8.6750 71° East 198 228 3,100 2,160 Climbing FlightAware
07:08AM 50.0700 8.6960 70° East 203 234 3,700 1,680 Climbing FlightAware
07:08AM 50.0760 8.7120 60° Northeast 216 249 3,900 1,020 Climbing FlightAware
07:09AM 50.1020 8.7340 28° Northeast 242 278 4,400 1,260 Climbing FlightAware
07:09AM 50.1340 8.7530 21° North 269 310 5,100 1,800 Climbing FlightAware
07:10AM 50.1650 8.7730 22° Northeast 277 319 6,100 1,800 Climbing FlightAware
07:10AM 50.1850 8.7800 13° North 292 336 6,400 780 Climbing FlightAware
07:10AM 50.2250 8.7620 344° North 331 381 6,700 840 Climbing FlightAware
07:11AM 50.2380 8.7410 314° West 341 392 7,000 1,860 Climbing FlightAware
07:12AM 50.2780 8.5770 291° West 354 407 9,600 1,980 Climbing FlightAware
07:13AM 50.2880 8.4740 279° West 363 418 11,000 2,220 Climbing FlightAware
07:13AM 50.3000 8.3450 278° West 379 436 12,500 1,980 Climbing FlightAware
07:14AM 50.3100 8.2420 279° West 390 449 13,600 1,740 Climbing FlightAware
07:15AM 50.3220 8.1070 278° West 397 457 15,000 1,800 Climbing FlightAware
07:16AM 50.3370 7.9460 278° West 405 466 16,700 1,680 Climbing FlightAware
07:16AM 50.3450 7.8520 278° West 412 474 17,500 1,500 Climbing FlightAware
07:17AM 50.3570 7.7270 279° West 418 481 18,600 1,440 Climbing FlightAware
07:17AM 50.3690 7.6810 292° West 421 484 18,900 1,320 Climbing FlightAware
07:17AM 50.4080 7.6230 317° Northwest 423 487 19,600 1,560 Climbing FlightAware
07:18AM 50.4800 7.5770 338° Northwest 423 487 20,700 1,500 Climbing FlightAware
07:19AM 50.5600 7.5250 338° Northwest 427 491 21,700 1,320 Climbing FlightAware
07:20AM 50.6280 7.4580 328° Northwest 434 499 22,600 1,200 Climbing FlightAware
07:20AM 50.6860 7.3980 327° Northwest 440 506 23,200 1,140 Climbing FlightAware
07:21AM 50.7590 7.3240 327° Northwest 446 513 24,100 1,440 Climbing FlightAware
07:21AM 50.8200 7.2600 326° Northwest 444 511 25,100 1,320 Climbing FlightAware
07:22AM 50.9150 7.1150 316° Northwest 452 520 26,300 1,200 Climbing FlightAware
07:23AM 50.9720 7.0190 313° West 453 521 27,200 1,020 Climbing FlightAware
07:24AM 51.0320 6.9060 310° West 462 532 27,800 900 Climbing FlightAware
07:25AM 51.1000 6.7790 310° West 468 539 28,600 900 Climbing FlightAware
07:25AM 51.1500 6.6840 310° West 471 542 29,200 840 Climbing FlightAware
07:26AM 51.2120 6.5680 310° West 477 549 29,800 840 Climbing FlightAware
07:27AM 51.2900 6.4220 311° West 483 556 30,600 900 Climbing FlightAware
07:28AM 51.3520 6.3030 310° West 484 557 31,300 1,020 Climbing FlightAware
07:28AM 51.4100 6.1930 310° West 480 552 32,100 960 Climbing FlightAware
07:29AM 51.5010 6.0180 310° West 482 555 33,000 840 Climbing FlightAware
07:30AM 51.5460 5.9310 310° West 481 554 33,500 720 Climbing FlightAware
07:31AM 51.6050 5.8170 310° West 482 555 33,900 300 Climbing FlightAware
07:31AM 51.6690 5.6920 310° West 484 557 34,000 60 Climbing FlightAware
07:32AM 51.7170 5.5990 310° West 483 556 34,000  Level FlightAware
07:33AM 51.7790 5.4750 309° West 485 558 34,000  Level FlightAware
07:34AM 51.8580 5.3190 309° West 484 557 34,000  Level FlightAware
07:34AM 51.9120 5.2120 309° West 484 557 34,000  Level FlightAware
07:35AM 51.9720 5.0940 310° West 484 557 34,000  Level FlightAware
07:36AM 52.0310 4.9750 309° West 484 557 34,000  Level FlightAware
07:36AM 52.0950 4.8470 309° West 485 558 34,000  Level FlightAware
07:37AM 52.1420 4.7510 309° West 484 557 34,000  Level FlightAware
07:38AM 52.2010 4.6320 309° West 483 556 34,000  Level FlightAware
07:38AM 52.2610 4.5090 309° West 483 556 34,000  Level FlightAware
07:39AM 52.3180 4.3930 309° West 483 556 34,000  Level FlightAware
07:40AM 52.3740 4.2760 308° West 483 556 34,000  Level FlightAware
07:40AM 52.4350 4.1510 309° West 482 555 34,000  Level FlightAware
07:41AM 52.4930 4.0300 308° West 483 556 34,000  Level FlightAware
07:42AM 52.5530 3.9040 308° West 485 558 34,000  Level FlightAware
07:43AM 52.6080 3.7890 308° West 487 560 34,000  Level FlightAware
07:43AM 52.6560 3.6880 308° West 488 562 34,000  Level FlightAware
07:44AM 52.7170 3.5590 308° West 489 563 34,000  Level FlightAware
07:44AM 52.7660 3.4540 308° West 490 564 34,000  Level FlightAware
07:45AM 52.8210 3.3210 304° West 488 562 34,000  Level FlightAware
07:46AM 52.8770 3.1850 304° West 488 562 34,000  Level FlightAware
07:47AM 52.9330 3.0490 304° West 490 564 34,000  Level FlightAware
07:47AM 52.9780 2.9390 304° West 490 564 34,000  Level FlightAware
07:48AM 53.0290 2.8150 304° West 491 565 34,000  Level FlightAware
07:49AM 53.0860 2.6780 305° West 491 565 34,000  Level FlightAware
07:49AM 53.1310 2.5650 304° West 492 566 34,000  Level FlightAware
07:50AM 53.1840 2.4350 304° West 492 566 34,000  Level FlightAware
07:51AM 53.2370 2.3040 304° West 491 565 34,000  Level FlightAware
07:51AM 53.2880 2.1770 304° West 491 565 34,000  Level FlightAware
07:52AM 53.3330 2.0630 303° West 492 566 34,000  Level FlightAware
07:52AM 53.3770 1.9530 304° West 491 565 34,000  Level FlightAware
07:53AM 53.4390 1.7950 303° West 491 565 34,000  Level FlightAware
07:54AM 53.4900 1.6630 303° West 491 565 34,000  Level FlightAware
07:55AM 53.5450 1.5240 304° West 492 566 34,000  Level FlightAware
07:55AM 53.5950 1.3950 303° West 492 566 34,000  Level FlightAware
07:56AM 53.6420 1.2730 303° West 490 564 34,000  Level FlightAware
07:57AM 53.6920 1.1420 303° West 490 564 34,000  Level FlightAware
07:57AM 53.7420 1.0120 303° West 490 564 34,000  Level FlightAware
07:58AM 53.7900 0.8850 303° West 490 564 34,000  Level FlightAware
07:59AM 53.8400 0.7520 303° West 489 563 34,000  Level FlightAware
07:59AM 53.8790 0.6490 303° West 489 563 34,000  Level FlightAware
08:00AM 53.9220 0.5330 302° West 489 563 34,000  Level FlightAware
08:00AM 53.9471 0.4669 303° West 490 564 34,000  Level FlightAware ADS-B
08:01AM 53.9820 0.3730 302° West 490 564 34,000  Level FlightAware
08:01AM 54.0153 0.2842 303° West 491 565 34,000  Level FlightAware ADS-B
08:02AM 54.0890 0.1080 306° West 493 567 34,000  Level FlightAware
08:03AM 54.1430 -0.0150 307° West 495 570 34,000  Level FlightAware
08:03AM 54.1910 -0.1270 306° West 495 570 34,000  Level FlightAware
08:04AM 54.2550 -0.2740 307° West 496 571 34,000  Level FlightAware
08:05AM 54.3100 -0.4030 306° West 496 571 34,000  Level FlightAware
08:06AM 54.3720 -0.5480 306° West 496 571 34,000  Level FlightAware
08:06AM 54.4260 -0.6750 306° West 495 570 34,000  Level FlightAware
08:07AM 54.4830 -0.8120 306° West 495 570 34,000  Level FlightAware
08:08AM 54.5450 -0.9570 306° West 495 570 34,000  Level FlightAware
08:08AM 54.6010 -1.0930 305° West 495 570 34,000  Level FlightAware
08:09AM 54.6510 -1.2140 306° West 494 568 34,000  Level FlightAware
08:10AM 54.7040 -1.3420 306° West 494 568 34,000  Level FlightAware
08:10AM 54.7570 -1.4710 305° West 494 568 34,000  Level FlightAware
08:13AM 54.8687 -1.8873 295° West  Level Estimated
08:13AM 54.9290 -1.8940 295° West 496 571 34,000  Level FlightAware
08:13AM 54.9750 -2.0080 305° West 497 572 34,000  Level FlightAware
08:14AM 55.0480 -2.1910 305° West 496 571 34,000  Level FlightAware
08:15AM 55.1060 -2.3370 305° West 497 572 34,000  Level FlightAware
08:15AM 55.1600 -2.4760 304° West 498 573 34,000  Level FlightAware
08:16AM 55.2260 -2.6430 305° West 497 572 34,000  Level FlightAware
08:17AM 55.2650 -2.7450 304° West 495 570 34,000  Level FlightAware
08:18AM 55.3210 -2.8890 304° West 496 571 34,000  Level FlightAware
08:18AM 55.3840 -3.0520 304° West 495 570 34,000  Level FlightAware
08:19AM 55.4240 -3.1560 304° West 495 570 34,000  Level FlightAware
08:19AM 55.4630 -3.2580 304° West 495 570 34,000  Level FlightAware
08:20AM 55.5210 -3.4730 296° West 489 563 34,000  Level FlightAware
08:21AM 55.5480 -3.6240 288° West 489 563 34,000  Level FlightAware
08:22AM 55.5720 -3.7590 288° West 490 564 34,000  Level FlightAware
08:22AM 55.6030 -3.9340 287° West 491 565 34,000  Level FlightAware
08:23AM 55.6260 -4.0640 287° West 492 566 34,000  Level FlightAware
08:24AM 55.6530 -4.2190 287° West 493 567 34,000  Level FlightAware
08:24AM 55.6820 -4.3870 287° West 493 567 34,000  Level FlightAware
08:25AM 55.7130 -4.5680 287° West 494 568 34,000  Level FlightAware
08:26AM 55.7340 -4.6910 287° West 493 567 34,000  Level FlightAware
08:27AM 55.7660 -4.8810 287° West 492 566 34,000  Level FlightAware
08:27AM 55.7890 -5.0200 286° West 492 566 34,000  Level FlightAware
08:28AM 55.8200 -5.2090 286° West 492 566 34,000  Level FlightAware
08:29AM 55.8500 -5.3930 286° West 492 566 34,000  Level FlightAware
08:29AM 55.8760 -5.5540 286° West 491 565 34,000  Level FlightAware
08:30AM 55.8920 -5.6540 286° West 492 566 34,000  Level FlightAware
08:31AM 55.9180 -5.8160 286° West 492 566 34,000  Level FlightAware
08:31AM 55.9430 -5.9730 286° West 492 566 34,000  Level FlightAware
08:32AM 55.9740 -6.1750 285° West 490 564 34,000  Level FlightAware
08:33AM 56.0000 -6.3410 286° West 490 564 34,000  Level FlightAware
08:34AM 56.0280 -6.5250 285° West 490 564 34,000  Level FlightAware
08:34AM 56.0460 -6.6440 285° West 490 564 34,000  Level FlightAware
08:35AM 56.0690 -6.7970 285° West 491 565 34,000  Level FlightAware
08:36AM 56.0960 -6.9790 285° West 489 563 34,000  Level FlightAware
08:36AM 56.1160 -7.1180 285° West 489 563 34,000  Level FlightAware
08:37AM 56.1390 -7.2710 285° West 489 563 34,000  Level FlightAware
08:37AM 56.1610 -7.4290 284° West 488 562 34,000  Level FlightAware
08:38AM 56.1840 -7.5880 285° West 488 562 34,000  Level FlightAware
08:39AM 56.2090 -7.7640 284° West 488 562 34,000  Level FlightAware
08:40AM 56.2320 -7.9320 284° West 490 564 34,000  Level FlightAware
08:40AM 56.2560 -8.1060 284° West 490 564 34,000  Level FlightAware
08:41AM 56.2830 -8.3000 284° West 490 564 34,000  Level FlightAware
08:42AM 56.3160 -8.5460 284° West 491 565 34,000  Level FlightAware
08:43AM 56.3430 -8.7550 283° West 490 564 34,000  Level FlightAware
08:44AM 56.3650 -8.9200 284° West 488 562 34,000  Level FlightAware
08:45AM 56.3930 -9.1380 283° West 488 562 34,000  Level FlightAware
08:46AM 56.4240 -9.3790 283° West 486 559 34,000  Level FlightAware
08:46AM 56.4430 -9.5370 282° West 486 559 34,000  Level FlightAware
08:47AM 56.4680 -9.7380 283° West 487 560 34,000  Level FlightAware
08:48AM 56.4920 -9.9350 283° West 486 559 34,000  Level FlightAware
08:49AM 56.5230 -10.1900 283° West 486 559 34,000  Level FlightAware
08:50AM 56.5430 -10.3540 283° West 486 559 34,000  Level FlightAware
08:50AM 56.5610 -10.5120 282° West 487 560 34,000  Level FlightAware
08:51AM 56.5750 -10.6320 282° West 487 560 34,000 60 Level FlightAware
08:52AM 56.5910 -10.7740 282° West 488 562 34,100 180 Climbing FlightAware
08:52AM 56.6070 -10.9160 282° West 488 562 34,300 120 Climbing FlightAware
08:53AM 56.6210 -11.0430 281° West 488 562 34,300 1,020 Level FlightAware
08:54AM 56.6450 -11.2480 282° West 484 557 35,700 1,380 Climbing FlightAware
08:54AM 56.6590 -11.3750 281° West 484 557 36,000 180 Climbing FlightAware
08:55AM 56.6810 -11.5830 281° West 481 554 36,000  Level FlightAware
08:56AM 56.6940 -11.7120 280° West 481 554 36,000  Level FlightAware
08:56AM 56.7060 -11.8340 280° West 481 554 36,000  Level FlightAware
08:57AM 56.7210 -11.9940 280° West 481 554 36,000  Level FlightAware
08:58AM 56.7330 -12.1190 280° West 481 554 36,000  Level FlightAware
08:59AM 56.7520 -12.3160 280° West 481 554 36,000  Level FlightAware
08:59AM 56.7650 -12.4460 280° West 481 554 36,000  Level FlightAware
09:00AM 56.7770 -12.5710 280° West 481 554 36,000  Level FlightAware
09:01AM 56.7960 -12.7690 280° West 481 554 36,000  Level FlightAware
09:01AM 56.8080 -12.8980 280° West 481 554 36,000  Level FlightAware
09:02AM 56.8200 -13.0200 280° West 481 554 36,000  Level FlightAware
09:03AM 56.8330 -13.1530 280° West 481 554 36,000  Level FlightAware
09:04AM 56.8490 -13.3200 280° West 481 554 36,000  Level FlightAware
09:04AM 56.8650 -13.4840 280° West 481 554 36,000  Level FlightAware
09:05AM 56.8770 -13.6060 280° West 481 554 36,000  Level FlightAware
09:08AM 56.9936 -14.1775 291° West  Level FlightAware Approximate
09:09AM 57.0381 -14.3996 290° West  Level FlightAware Approximate
09:10AM 57.0821 -14.6223 290° West  Level FlightAware Approximate
09:11AM 57.1258 -14.8456 290° West  Level FlightAware Approximate
09:12AM 57.1691 -15.0693 290° West  Level FlightAware Approximate
09:13AM 57.2119 -15.2936 290° West  Level FlightAware Approximate
09:14AM 57.2544 -15.5184 289° West  Level FlightAware Approximate
09:15AM 57.2965 -15.7437 289° West  Level FlightAware Approximate
09:16AM 57.3381 -15.9695 289° West  Level FlightAware Approximate
09:17AM 57.3794 -16.1959 289° West  Level FlightAware Approximate
09:18AM 57.4202 -16.4227 289° West  Level FlightAware Approximate
09:19AM 57.4607 -16.6500 288° West  Level FlightAware Approximate
09:20AM 57.5007 -16.8779 288° West  Level FlightAware Approximate
09:21AM 57.5403 -17.1063 288° West  Level FlightAware Approximate
09:22AM 57.5795 -17.3351 288° West  Level FlightAware Approximate
09:23AM 57.6183 -17.5644 288° West  Level FlightAware Approximate
09:24AM 57.6567 -17.7942 287° West  Level FlightAware Approximate
09:25AM 57.6946 -18.0245 287° West  Level FlightAware Approximate
09:26AM 57.7322 -18.2553 287° West  Level FlightAware Approximate
09:27AM 57.7693 -18.4866 287° West  Level FlightAware Approximate
09:28AM 57.8060 -18.7183 287° West  Level FlightAware Approximate
09:29AM 57.8422 -18.9505 286° West  Level FlightAware Approximate
09:30AM 57.8781 -19.1832 286° West  Level FlightAware Approximate
09:31AM 57.9135 -19.4163 286° West  Level FlightAware Approximate
09:31AM 58.0000 -20.0000 295° West 496 571 36,000  Level ETMS Enhanced Traffic Management System
09:32AM 57.9485 -19.6499 286° West  Level FlightAware Approximate
09:33AM 57.9824 -19.8795 286° West  Level FlightAware Approximate
09:34AM 58.0258 -20.1071 295° West  Level FlightAware Approximate
09:35AM 58.0780 -20.3247 294° West  Level FlightAware Approximate
09:36AM 58.1298 -20.5430 294° West  Level FlightAware Approximate
09:37AM 58.3480 -21.4243 294° West 496 571 36,000  Level FlightAware Transoceanic
09:38AM 58.4044 -21.6644 294° West 496 571 36,000  Level FlightAware Transoceanic
09:39AM 58.4604 -21.9052 294° West 496 571 36,000  Level FlightAware Transoceanic
09:40AM 58.5159 -22.1468 294° West 496 571 36,000  Level FlightAware Transoceanic
09:41AM 58.5710 -22.3892 293° West 496 571 36,000  Level FlightAware Transoceanic
09:42AM 58.6256 -22.6323 293° West 496 571 36,000  Level FlightAware Transoceanic
09:43AM 58.6798 -22.8762 293° West 496 571 36,000  Level FlightAware Transoceanic
09:44AM 58.7335 -23.1209 293° West 496 571 36,000  Level FlightAware Transoceanic
09:45AM 58.7867 -23.3663 293° West 496 571 36,000  Level FlightAware Transoceanic
09:46AM 58.8395 -23.6124 292° West 496 571 36,000  Level FlightAware Transoceanic
09:47AM 58.8918 -23.8594 292° West 496 571 36,000  Level FlightAware Transoceanic
09:48AM 58.9436 -24.1070 292° West 496 571 36,000  Level FlightAware Transoceanic
09:49AM 58.9950 -24.3554 292° West 496 571 36,000  Level FlightAware Transoceanic
09:50AM 59.0459 -24.6045 292° West 496 571 36,000  Level FlightAware Transoceanic
09:51AM 59.0963 -24.8544 291° West 496 571 36,000  Level FlightAware Transoceanic
09:52AM 59.1462 -25.1050 291° West 496 571 36,000  Level FlightAware Transoceanic
09:53AM 59.1956 -25.3563 291° West 496 571 36,000  Level FlightAware Transoceanic
09:54AM 59.2446 -25.6084 291° West 496 571 36,000  Level FlightAware Transoceanic
09:55AM 59.2930 -25.8611 290° West 496 571 36,000  Level FlightAware Transoceanic
09:56AM 59.3410 -26.1146 290° West 496 571 36,000  Level FlightAware Transoceanic
09:57AM 59.3885 -26.3688 290° West 496 571 36,000  Level FlightAware Transoceanic
09:58AM 59.4354 -26.6237 290° West 496 571 36,000  Level FlightAware Transoceanic
09:59AM 59.4819 -26.8793 290° West 496 571 36,000  Level FlightAware Transoceanic
10:00AM 59.5279 -27.1356 289° West 496 571 36,000  Level FlightAware Transoceanic
10:01AM 59.5734 -27.3927 289° West 496 571 36,000  Level FlightAware Transoceanic
10:02AM 59.6183 -27.6504 289° West 496 571 36,000  Level FlightAware Transoceanic
10:03AM 59.6628 -27.9088 289° West 496 571 36,000  Level FlightAware Transoceanic
10:04AM 59.7068 -28.1678 288° West 496 571 36,000  Level FlightAware Transoceanic
10:05AM 59.7502 -28.4276 288° West 496 571 36,000  Level FlightAware Transoceanic
10:06AM 59.7931 -28.6880 288° West 496 571 36,000  Level FlightAware Transoceanic
10:07AM 59.8355 -28.9491 288° West 496 571 36,000  Level FlightAware Transoceanic
10:08AM 59.8774 -29.2108 288° West 496 571 36,000  Level FlightAware Transoceanic
10:09AM 59.9188 -29.4732 287° West 496 571 36,000  Level FlightAware Transoceanic
10:10AM 59.9597 -29.7363 287° West 496 571 36,000  Level FlightAware Transoceanic
10:11AM 59.9967 -29.9779 287° West  Level FlightAware Approximate
10:12AM 60.0331 -30.2201 287° West  Level FlightAware Approximate
10:13AM 60.0280 -30.1990 286° West  Level FlightAware Approximate
10:14AM 60.0618 -30.4429 286° West  Level FlightAware Approximate
10:15AM 60.0952 -30.6874 285° West  Level FlightAware Approximate
10:16AM 60.1282 -30.9323 285° West  Level FlightAware Approximate
10:17AM 60.1606 -31.1777 285° West  Level FlightAware Approximate
10:18AM 60.1927 -31.4236 285° West  Level FlightAware Approximate
10:19AM 60.2243 -31.6700 285° West  Level FlightAware Approximate
10:20AM 60.2554 -31.9168 284° West  Level FlightAware Approximate
10:21AM 60.2860 -32.1641 284° West  Level FlightAware Approximate
10:22AM 60.3162 -32.4119 284° West  Level FlightAware Approximate
10:23AM 60.3460 -32.6601 284° West  Level FlightAware Approximate
10:24AM 60.3753 -32.9088 283° West  Level FlightAware Approximate
10:25AM 60.4041 -33.1579 283° West  Level FlightAware Approximate
10:26AM 60.4324 -33.4074 283° West  Level FlightAware Approximate
10:27AM 60.4603 -33.6574 283° West  Level FlightAware Approximate
10:28AM 60.4877 -33.9078 283° West  Level FlightAware Approximate
10:29AM 60.5146 -34.1586 282° West  Level FlightAware Approximate
10:30AM 60.5411 -34.4099 282° West  Level FlightAware Approximate
10:31AM 60.5671 -34.6615 282° West  Level FlightAware Approximate
10:32AM 60.5926 -34.9136 282° West  Level FlightAware Approximate
10:33AM 60.6176 -35.1660 282° West  Level FlightAware Approximate
10:34AM 60.6422 -35.4189 281° West  Level FlightAware Approximate
10:35AM 60.6663 -35.6721 281° West  Level FlightAware Approximate
10:36AM 60.6899 -35.9257 281° West  Level FlightAware Approximate
10:37AM 60.7131 -36.1796 281° West  Level FlightAware Approximate
10:38AM 60.7357 -36.4340 280° West  Level FlightAware Approximate
10:39AM 60.7579 -36.6886 280° West  Level FlightAware Approximate
10:40AM 60.7796 -36.9437 280° West  Level FlightAware Approximate
10:41AM 60.8008 -37.1991 280° West  Level FlightAware Approximate
10:42AM 60.8215 -37.4548 280° West  Level FlightAware Approximate
10:43AM 60.8417 -37.7108 279° West  Level FlightAware Approximate
10:44AM 60.8615 -37.9671 279° West  Level FlightAware Approximate
10:45AM 60.8807 -38.2238 279° West  Level FlightAware Approximate
10:46AM 60.8995 -38.4808 279° West  Level FlightAware Approximate
10:47AM 60.9177 -38.7380 278° West  Level FlightAware Approximate
10:48AM 60.9355 -38.9956 278° West  Level FlightAware Approximate
10:49AM 60.9528 -39.2534 278° West  Level FlightAware Approximate
10:50AM 60.9696 -39.5116 278° West  Level FlightAware Approximate
10:51AM 60.9859 -39.7700 278° West  Level FlightAware Approximate
10:52AM 61.0011 -40.0288 274° West  Level FlightAware Approximate
10:53AM 61.0104 -40.2888 274° West  Level FlightAware Approximate
10:54AM 61.0192 -40.5491 274° West  Level FlightAware Approximate
10:55AM 61.0276 -40.8094 274° West  Level FlightAware Approximate
10:56AM 61.0354 -41.0699 274° West  Level FlightAware Approximate
10:57AM 61.0428 -41.3306 273° West  Level FlightAware Approximate
10:58AM 61.0496 -41.5913 273° West  Level FlightAware Approximate
10:59AM 61.0559 -41.8522 273° West  Level FlightAware Approximate
11:00AM 61.0617 -42.1131 273° West  Level FlightAware Approximate
11:01AM 61.0671 -42.3742 273° West  Level FlightAware Approximate
11:02AM 61.0719 -42.6353 272° West  Level FlightAware Approximate
11:03AM 61.0762 -42.8965 272° West  Level FlightAware Approximate
11:04AM 61.0800 -43.1578 272° West  Level FlightAware Approximate
11:05AM 61.0833 -43.4191 272° West  Level FlightAware Approximate
11:06AM 61.0861 -43.6805 271° West  Level FlightAware Approximate
11:07AM 61.0884 -43.9419 271° West  Level FlightAware Approximate
11:08AM 61.0902 -44.2034 271° West  Level FlightAware Approximate
11:09AM 61.0915 -44.4649 271° West  Level FlightAware Approximate
11:10AM 61.0923 -44.7264 270° West  Level FlightAware Approximate
11:11AM 61.0925 -44.9879 270° West  Level FlightAware Approximate
11:12AM 61.0923 -45.2494 270° West  Level FlightAware Approximate
11:13AM 61.0916 -45.5109 270° West  Level FlightAware Approximate
11:14AM 61.0903 -45.7724 270° West  Level FlightAware Approximate
11:15AM 61.0886 -46.0338 269° West  Level FlightAware Approximate
11:16AM 61.0863 -46.2953 269° West  Level FlightAware Approximate
11:17AM 61.0836 -46.5567 269° West  Level FlightAware Approximate
11:18AM 61.0803 -46.8180 269° West  Level FlightAware Approximate
11:19AM 61.0766 -47.0793 268° West  Level FlightAware Approximate
11:20AM 61.0723 -47.3405 268° West  Level FlightAware Approximate
11:21AM 61.0675 -47.6016 268° West  Level FlightAware Approximate
11:22AM 61.0623 -47.8627 268° West  Level FlightAware Approximate
11:23AM 61.0565 -48.1236 267° West  Level FlightAware Approximate
11:24AM 61.0502 -48.3845 267° West  Level FlightAware Approximate
11:25AM 61.0434 -48.6453 267° West  Level FlightAware Approximate
11:26AM 61.0361 -48.9059 267° West  Level FlightAware Approximate
11:27AM 61.0283 -49.1664 267° West  Level FlightAware Approximate
11:28AM 61.0200 -49.4268 266° West  Level FlightAware Approximate
11:29AM 61.0113 -49.6866 266° West  Level FlightAware Approximate
11:30AM 61.0020 -49.9462 266° West  Level FlightAware Approximate
11:31AM 60.9875 -50.2046 263° West  Level FlightAware Approximate
11:32AM 60.9713 -50.4625 263° West  Level FlightAware Approximate
11:33AM 60.9546 -50.7201 262° West  Level FlightAware Approximate
11:34AM 60.9373 -50.9775 262° West  Level FlightAware Approximate
11:35AM 60.9196 -51.2346 262° West  Level FlightAware Approximate
11:35AM 60.8833 -51.9333 261° West 440 506 36,000  Level Gander Center
11:36AM 60.9015 -51.4914 262° West  Level FlightAware Approximate
11:36AM 60.8667 -52.1833 262° West 450 518 36,000  Level Gander Center
11:37AM 60.8828 -51.7479 262° West  Level FlightAware Approximate
11:37AM 60.8500 -52.4333 262° West 450 518 36,000  Level Gander Center
11:38AM 60.8636 -52.0041 261° West  Level FlightAware Approximate
11:38AM 60.8333 -52.7167 263° West 450 518 36,000  Level Gander Center
11:39AM 60.8440 -52.2600 261° West  Level FlightAware Approximate
11:39AM 60.8167 -52.9500 262° West 450 518 36,000  Level Gander Center
11:40AM 60.8238 -52.5156 261° West  Level FlightAware Approximate
11:40AM 60.7833 -53.2000 255° West 450 518 36,000  Level Gander Center
11:41AM 60.7667 -53.4833 263° West 460 529 36,000  Level Gander Center
11:42AM 60.7500 -53.7167 262° West 460 529 36,000  Level Gander Center
11:43AM 60.7167 -53.9667 255° West 460 529 36,000  Level Gander Center
11:44AM 60.7000 -54.2500 263° West 460 529 36,000  Level Gander Center
11:45AM 60.6667 -54.4833 254° West 460 529 36,000  Level Gander Center
11:46AM 60.6500 -54.7333 262° West 460 529 36,000  Level Gander Center
11:47AM 60.6333 -55.0167 263° West 470 541 36,000  Level Gander Center
11:48AM 60.6000 -55.2500 254° West 470 541 36,000  Level Gander Center
11:49AM 60.5500 -55.5333 250° West 470 541 36,000  Level Gander Center
11:50AM 60.5333 -55.7667 262° West 470 541 36,000  Level Gander Center
11:51AM 60.5167 -56.0500 263° West 470 541 36,000  Level Gander Center
11:52AM 60.5000 -56.2833 262° West 480 552 36,000  Level Gander Center
11:53AM 60.4500 -56.5667 250° West 480 552 36,000  Level Gander Center
11:54AM 60.4333 -56.8333 263° West 490 564 36,000  Level Gander Center
11:55AM 60.4000 -57.0667 254° West 480 552 36,000  Level Gander Center
11:56AM 60.3833 -57.3500 263° West 480 552 36,000  Level Gander Center
11:57AM 60.3333 -57.5833 247° West 480 552 36,000  Level Gander Center
11:58AM 60.3000 -57.8500 256° West 480 552 36,000  Level Gander Center
11:59AM 60.2833 -58.1333 263° West 480 552 36,000  Level Gander Center
12:00PM 60.2333 -58.4000 249° West 480 552 36,000  Level Gander Center
12:01PM 60.2167 -58.6333 262° West 480 552 36,000  Level Gander Center
12:02PM 60.1833 -58.9000 256° West 490 564 36,000  Level Gander Center
12:03PM 60.1333 -59.1833 251° West 490 564 36,000  Level Gander Center
12:04PM 60.1000 -59.4500 256° West 490 564 36,000  Level Gander Center
12:05PM 60.0667 -59.6833 254° West 490 564 36,000  Level Gander Center
12:06PM 60.0333 -59.9500 256° West 490 564 36,000  Level Gander Center
12:07PM 60.0000 -60.2167 256° West 490 564 36,000  Level Gander Center
12:08PM 59.9500 -60.4833 250° West 490 564 36,000  Level Gander Center
12:09PM 59.8833 -60.7500 244° Southwest 490 564 36,000  Level Gander Center
12:09PM 59.8667 -60.8500 252° West 490 564 36,000  Level Montreal Center
12:10PM 59.8167 -61.1000 248° West 490 564 36,000  Level Montreal Center
12:11PM 59.7667 -61.3667 250° West 490 564 36,000  Level Montreal Center
12:12PM 59.7333 -61.6167 255° West 490 564 36,000  Level Montreal Center
12:13PM 59.6833 -61.9167 252° West 500 575 36,000  Level Montreal Center
12:14PM 59.6500 -62.1667 255° West 490 564 36,000  Level Montreal Center
12:15PM 59.6000 -62.4167 249° West 490 564 36,000  Level Montreal Center
12:16PM 59.5667 -62.6667 255° West 490 564 36,000  Level Montreal Center
12:17PM 59.5167 -62.9167 249° West 490 564 36,000  Level Montreal Center
12:18PM 59.4667 -63.1833 250° West 490 564 36,000  Level Montreal Center
12:19PM 59.4167 -63.4333 249° West 490 564 36,000 120 Level Montreal Center
12:20PM 59.3667 -63.6833 249° West 490 564 36,300 420 Climbing Montreal Center
12:21PM 59.2833 -63.8833 231° Southwest 480 552 36,900 540 Climbing Montreal Center
12:22PM 59.2167 -64.1000 239° Southwest 480 552 37,400 540 Climbing Montreal Center
12:23PM 59.1333 -64.3000 231° Southwest 480 552 38,000 300 Climbing Montreal Center
12:24PM 59.0500 -64.4833 229° Southwest 480 552 38,000  Level Montreal Center
12:25PM 58.9500 -64.7167 230° Southwest 480 552 38,000  Level Montreal Center
12:26PM 58.8833 -64.9000 235° Southwest 480 552 38,000  Level Montreal Center
12:27PM 58.8000 -65.1167 233° Southwest 480 552 38,000  Level Montreal Center
12:28PM 58.7167 -65.3167 231° Southwest 480 552 38,000  Level Montreal Center
12:29PM 58.6333 -65.5333 234° Southwest 480 552 38,000  Level Montreal Center
12:30PM 58.5500 -65.7167 229° Southwest 480 552 38,000  Level Montreal Center
12:31PM 58.4500 -65.9167 226° Southwest 480 552 38,000  Level Montreal Center
12:32PM 58.3667 -66.1333 234° Southwest 480 552 38,000  Level Montreal Center
12:33PM 58.2833 -66.3167 229° Southwest 480 552 38,000  Level Montreal Center
12:35PM 58.1833 -66.6333 239° Southwest 480 552 38,000  Level Gander Center
12:36PM 58.0833 -66.8333 227° Southwest 480 552 38,000  Level Gander Center
12:36PM 58.0167 -66.9000 208° Southwest 480 552 38,000  Level Montreal Center
12:37PM 57.9500 -67.0667 233° Southwest 480 552 38,000  Level Montreal Center
12:38PM 57.8667 -67.2833 234° Southwest 480 552 38,000  Level Montreal Center
12:39PM 57.7667 -67.4667 224° Southwest 480 552 38,000  Level Montreal Center
12:40PM 57.6667 -67.6833 229° Southwest 480 552 38,000  Level Montreal Center
12:41PM 57.5833 -67.8500 227° Southwest 480 552 38,000  Level Montreal Center
12:42PM 57.5000 -68.0667 234° Southwest 480 552 38,000  Level Montreal Center
12:43PM 57.4167 -68.2333 227° Southwest 480 552 38,000  Level Montreal Center
12:44PM 57.3167 -68.4167 225° Southwest 480 552 38,000  Level Montreal Center
12:45PM 57.2333 -68.6167 232° Southwest 480 552 38,000  Level Montreal Center
12:46PM 57.1500 -68.7833 227° Southwest 480 552 38,000  Level Montreal Center
12:47PM 57.0500 -69.0000 230° Southwest 480 552 38,000  Level Montreal Center
12:48PM 56.9667 -69.1667 228° Southwest 480 552 38,000  Level Montreal Center
12:49PM 56.8667 -69.3333 222° Southwest 480 552 38,000  Level Montreal Center
12:50PM 56.8000 -69.5333 239° Southwest 480 552 38,000  Level Montreal Center
12:51PM 56.7000 -69.7000 222° Southwest 480 552 38,000  Level Montreal Center
12:52PM 56.6167 -69.8667 228° Southwest 470 541 38,000  Level Montreal Center
12:53PM 56.5167 -70.0667 228° Southwest 470 541 38,000  Level Montreal Center
12:54PM 56.4167 -70.2333 223° Southwest 480 552 38,000  Level Montreal Center
12:55PM 56.3333 -70.4333 233° Southwest 480 552 38,000  Level Montreal Center
12:56PM 56.2333 -70.6000 223° Southwest 480 552 38,000  Level Montreal Center
12:57PM 56.1667 -70.7667 234° Southwest 470 541 38,000  Level Montreal Center
12:58PM 56.0667 -70.9167 220° Southwest 470 541 38,000  Level Montreal Center
12:59PM 55.9667 -71.1167 228° Southwest 470 541 38,000  Level Montreal Center
01:00PM 55.8833 -71.2833 228° Southwest 470 541 38,000  Level Montreal Center
01:01PM 55.7833 -71.4333 220° Southwest 480 552 38,000  Level Montreal Center
01:02PM 55.6833 -71.6000 223° Southwest 470 541 38,000  Level Montreal Center
01:03PM 55.6167 -71.7833 237° Southwest 470 541 38,000  Level Montreal Center
01:04PM 55.5167 -71.9500 223° Southwest 470 541 38,000  Level Montreal Center
01:05PM 55.4167 -72.1000 220° Southwest 470 541 38,000  Level Montreal Center
01:06PM 55.3167 -72.2667 224° Southwest 460 529 38,000  Level Montreal Center
01:07PM 55.2500 -72.4500 238° Southwest 470 541 38,000  Level Montreal Center
01:08PM 55.1500 -72.6000 221° Southwest 470 541 38,000  Level Montreal Center
01:09PM 55.0500 -72.7667 224° Southwest 470 541 38,000  Level Montreal Center
01:10PM 54.9500 -72.9500 227° Southwest 470 541 38,000  Level Montreal Center
01:11PM 54.8500 -73.1000 221° Southwest 470 541 38,000  Level Montreal Center
01:12PM 54.7667 -73.2500 226° Southwest 470 541 38,000  Level Montreal Center
01:13PM 54.6833 -73.4000 226° Southwest 470 541 38,000  Level Montreal Center
01:14PM 54.5833 -73.5500 221° Southwest 470 541 38,000  Level Montreal Center
01:15PM 54.4833 -73.7333 227° Southwest 470 541 38,000  Level Montreal Center
01:16PM 54.4000 -73.8833 226° Southwest 470 541 38,000  Level Montreal Center
01:17PM 54.3000 -74.0333 221° Southwest 470 541 38,000  Level Montreal Center
01:18PM 54.2000 -74.1833 221° Southwest 470 541 38,000  Level Montreal Center
01:19PM 54.1000 -74.3500 224° Southwest 470 541 38,000  Level Montreal Center
01:20PM 54.0167 -74.5000 227° Southwest 470 541 38,000  Level Montreal Center
01:21PM 53.9167 -74.6500 221° Southwest 470 541 38,000  Level Montreal Center
01:22PM 53.8167 -74.8000 222° Southwest 460 529 38,000  Level Montreal Center
01:23PM 53.7167 -74.9667 225° Southwest 460 529 38,000  Level Montreal Center
01:24PM 53.6333 -75.1167 227° Southwest 470 541 38,000  Level Montreal Center
01:25PM 53.5333 -75.2500 218° Southwest 470 541 38,000  Level Montreal Center
01:26PM 53.4333 -75.4000 222° Southwest 460 529 38,000  Level Montreal Center
01:27PM 53.3333 -75.5333 219° Southwest 460 529 38,000  Level Montreal Center
01:28PM 53.2500 -75.7167 233° Southwest 470 541 38,000  Level Montreal Center
01:29PM 53.1500 -75.8500 219° Southwest 470 541 38,000  Level Montreal Center
01:30PM 53.0500 -76.0000 222° Southwest 470 541 38,000  Level Montreal Center
01:31PM 52.9500 -76.1333 219° Southwest 470 541 38,000  Level Montreal Center
01:32PM 52.8667 -76.2667 224° Southwest 470 541 38,000  Level Montreal Center
01:33PM 52.7667 -76.4333 225° Southwest 460 529 38,000  Level Montreal Center
01:34PM 52.6667 -76.5667 219° Southwest 470 541 38,000  Level Montreal Center
01:35PM 52.5667 -76.7167 222° Southwest 470 541 38,000  Level Montreal Center
01:36PM 52.4667 -76.8833 225° Southwest 460 529 38,000  Level Montreal Center
01:37PM 52.3833 -77.0167 224° Southwest 470 541 38,000  Level Montreal Center
01:38PM 52.2667 -77.1500 215° Southwest 460 529 38,000  Level Montreal Center
01:39PM 52.1667 -77.2833 219° Southwest 460 529 38,000  Level Montreal Center
01:40PM 52.0833 -77.4167 225° Southwest 460 529 38,000  Level Montreal Center
01:41PM 51.9833 -77.5500 219° Southwest 470 541 38,000  Level Montreal Center
01:42PM 51.8833 -77.7167 226° Southwest 460 529 38,000  Level Montreal Center
01:43PM 51.8000 -77.8500 225° Southwest 460 529 38,000  Level Montreal Center
01:44PM 51.6833 -77.9667 212° Southwest 470 541 38,000  Level Montreal Center
01:45PM 51.5833 -78.1000 220° Southwest 460 529 38,000  Level Montreal Center
01:46PM 51.5000 -78.2333 225° Southwest 460 529 38,000  Level Montreal Center
01:47PM 51.4000 -78.4000 226° Southwest 460 529 38,000  Level Montreal Center
01:48PM 51.3000 -78.5167 216° Southwest 460 529 38,000  Level Montreal Center
01:49PM 51.2000 -78.6500 220° Southwest 470 541 38,000  Level Montreal Center
01:50PM 51.1000 -78.7833 220° Southwest 460 529 38,000  Level Montreal Center
01:51PM 51.0000 -78.9000 216° Southwest 460 529 38,000  Level Montreal Center
01:52PM 50.9167 -79.0333 225° Southwest 470 541 38,000  Level Montreal Center
01:53PM 50.8000 -79.1667 216° Southwest 460 529 38,000  Level Montreal Center
01:54PM 50.7000 -79.3167 224° Southwest 460 529 38,000  Level Montreal Center
01:55PM 50.6167 -79.4333 222° Southwest 460 529 38,000  Level Montreal Center
01:56PM 50.5000 -79.5667 216° Southwest 470 541 38,000  Level Montreal Center
01:57PM 50.4000 -79.6833 217° Southwest 460 529 38,000  Level Montreal Center
01:58PM 50.3000 -79.8167 220° Southwest 460 529 38,000  Level Montreal Center
01:59PM 50.2167 -79.9333 222° Southwest 460 529 38,000  Level Montreal Center
02:00PM 50.1167 -80.0667 221° Southwest 460 529 38,000  Level Montreal Center
02:01PM 50.0167 -80.2000 221° Southwest 460 529 38,000  Level Montreal Center
02:02PM 49.9167 -80.3333 221° Southwest 460 529 38,000  Level Montreal Center
02:03PM 49.8000 -80.4500 213° Southwest 460 529 38,000  Level Montreal Center
02:04PM 49.7167 -80.5667 222° Southwest 460 529 38,000  Level Montreal Center
02:05PM 49.6000 -80.6833 213° Southwest 450 518 38,000  Level Montreal Center
02:06PM 49.5167 -80.8167 226° Southwest 450 518 38,000  Level Montreal Center
02:07PM 49.4167 -80.9333 217° Southwest 450 518 38,000  Level Montreal Center
02:08PM 49.3000 -81.0500 213° Southwest 450 518 38,000  Level Montreal Center
02:09PM 49.2167 -81.2000 230° Southwest 450 518 38,000  Level Montreal Center
02:10PM 49.1167 -81.2833 209° Southwest 450 518 38,000  Level Montreal Center
02:11PM 49.0167 -81.4000 217° Southwest 450 518 38,000  Level Montreal Center
02:12PM 48.9167 -81.5500 225° Southwest 450 518 38,000  Level Montreal Center
02:13PM 48.8167 -81.6333 209° Southwest 450 518 38,000  Level Montreal Center
02:14PM 48.7167 -81.7833 225° Southwest 450 518 38,000  Level Montreal Center
02:15PM 48.6167 -81.9000 218° Southwest 450 518 38,000  Level Montreal Center
02:16PM 48.5167 -82.0167 218° Southwest 450 518 38,000  Level Montreal Center
02:17PM 48.4333 -82.1167 219° Southwest 450 518 38,000  Level Montreal Center
02:18PM 48.3167 -82.2333 214° Southwest 440 506 38,000  Level Montreal Center
02:19PM 48.2333 -82.3500 223° Southwest 440 506 38,000  Level Montreal Center
02:20PM 48.1333 -82.4500 214° Southwest 440 506 38,000  Level Montreal Center
02:21PM 48.0333 -82.5500 214° Southwest 440 506 38,000  Level Montreal Center
02:22PM 47.9333 -82.6667 218° Southwest 440 506 38,000  Level Montreal Center
02:28PM 47.4010 -83.2540 218° Southwest 425 489 38,000  Level FlightAware
02:29PM 47.3470 -83.3120 216° Southwest 425 489 38,000  Level FlightAware
02:29PM 47.2690 -83.3990 217° Southwest 424 488 38,000  Level FlightAware
02:30PM 47.2190 -83.4540 217° Southwest 422 486 38,000  Level FlightAware
02:31PM 47.1550 -83.5230 216° Southwest 421 484 38,000  Level FlightAware
02:31PM 47.0840 -83.5990 216° Southwest 420 483 38,000  Level FlightAware
02:32PM 46.9970 -83.6940 217° Southwest 420 483 38,000  Level FlightAware
02:33PM 46.9340 -83.7610 216° Southwest 420 483 38,000  Level FlightAware
02:34PM 46.8810 -83.8180 216° Southwest 420 483 38,000  Level FlightAware
02:34PM 46.8240 -83.8790 216° Southwest 420 483 38,000  Level FlightAware
02:35PM 46.7550 -83.9530 216° Southwest 419 482 38,000  Level FlightAware
02:36PM 46.6930 -84.0190 216° Southwest 419 482 38,000  Level FlightAware
02:36PM 46.6300 -84.0850 216° Southwest 419 482 38,000  Level FlightAware
02:37PM 46.5780 -84.1410 217° Southwest 419 482 38,000  Level FlightAware
02:38PM 46.5010 -84.2220 216° Southwest 420 483 38,000  Level FlightAware
02:38PM 46.4380 -84.2870 215° Southwest 422 486 38,000  Level FlightAware
02:39PM 46.3540 -84.3300 199° South 449 517 38,000  Level FlightAware
02:40PM 46.2770 -84.3600 195° South 441 507 38,000  Level FlightAware
02:40PM 46.2050 -84.3880 195° South 442 509 38,000  Level FlightAware
02:41PM 46.1230 -84.4170 194° South 442 509 38,000  Level FlightAware
02:42PM 46.0370 -84.4450 193° South 442 509 38,000  Level FlightAware
02:42PM 45.9590 -84.4720 194° South 439 505 38,000  Level FlightAware
02:43PM 45.8720 -84.5010 193° South 435 501 38,000  Level FlightAware
02:44PM 45.8030 -84.5500 206° Southwest 409 471 38,000  Level FlightAware
02:44PM 45.7590 -84.6410 235° Southwest 393 452 38,000  Level FlightAware
02:45PM 45.7540 -84.7860 267° West 394 453 38,000  Level FlightAware
02:46PM 45.7600 -84.8890 275° West 391 450 38,000  Level FlightAware
02:47PM 45.7660 -84.9970 275° West 390 449 38,000  Level FlightAware
02:47PM 45.7440 -85.0990 253° West 396 456 38,000  Level FlightAware
02:48PM 45.7230 -85.1310 227° Southwest 406 467 38,000  Level FlightAware
02:48PM 45.6710 -85.1670 206° Southwest 434 499 38,000  Level FlightAware
02:49PM 45.5900 -85.1780 185° South 444 511 38,000 -120 Level FlightAware
02:49PM 45.5240 -85.1840 184° South 441 507 37,900 -780 Descending FlightAware
02:50PM 45.4310 -85.1950 185° South 443 510 37,000 -900 Descending FlightAware
02:51PM 45.3440 -85.2060 185° South 449 517 36,600 -480 Descending FlightAware
02:52PM 45.2130 -85.2200 184° South 449 517 36,200 -540 Descending FlightAware
02:53PM 45.0580 -85.2380 185° South 437 503 35,300 -1,440 Descending FlightAware
02:54PM 44.9640 -85.2510 186° South 432 497 33,500 -2,340 Descending FlightAware
02:55PM 44.8860 -85.2600 185° South 435 501 32,200 -1,080 Descending FlightAware
02:55PM 44.7910 -85.2710 185° South 442 509 32,000 -180 Descending FlightAware
02:56PM 44.7100 -85.2810 185° South 442 509 32,000  Level FlightAware
02:57PM 44.6310 -85.2900 185° South 441 507 32,000  Level FlightAware
02:57PM 44.5590 -85.2980 185° South 438 504 32,000  Level FlightAware
02:58PM 44.4690 -85.3090 185° South 437 503 32,000  Level FlightAware
02:59PM 44.3860 -85.3180 184° South 437 503 32,000  Level FlightAware
02:59PM 44.2980 -85.3280 185° South 437 503 32,000  Level FlightAware
03:00PM 44.2060 -85.3390 185° South 436 502 32,000  Level FlightAware
03:01PM 44.1300 -85.3470 184° South 436 502 32,000  Level FlightAware
03:02PM 44.0480 -85.3570 185° South 436 502 32,000  Level FlightAware
03:02PM 43.9730 -85.3650 184° South 435 501 32,000  Level FlightAware
03:03PM 43.9000 -85.3740 185° South 435 501 32,000  Level FlightAware
03:03PM 43.8190 -85.3830 185° South 434 499 32,000  Level FlightAware
03:04PM 43.7600 -85.3890 184° South 433 498 32,000  Level FlightAware
03:05PM 43.6800 -85.3980 185° South 433 498 32,000  Level FlightAware
03:05PM 43.6000 -85.4070 185° South 433 498 32,000  Level FlightAware
03:06PM 43.5090 -85.4180 185° South 433 498 32,000  Level FlightAware
03:07PM 43.4360 -85.4260 185° South 434 499 32,000 -900 Level FlightAware
03:07PM 43.3430 -85.4360 184° South 446 513 30,800 -1,800 Descending FlightAware
03:08PM 43.2520 -85.4460 185° South 453 521 29,400 -1,560 Descending FlightAware
03:09PM 43.1740 -85.4620 189° South 430 495 28,700 -900 Descending FlightAware
03:09PM 43.1160 -85.5040 208° Southwest 403 464 28,300 -480 Descending FlightAware
03:10PM 43.0480 -85.6060 228° Southwest 395 455 28,000 -240 Descending FlightAware
03:11PM 42.9790 -85.7220 231° Southwest 396 456 27,900 -900 Descending FlightAware
03:12PM 42.9300 -85.8040 231° Southwest 388 447 26,500 -1,860 Descending FlightAware
03:13PM 42.8850 -85.8780 230° Southwest 378 435 25,300 -1,980 Descending FlightAware
03:13PM 42.8360 -85.9590 230° Southwest 372 428 23,800 -2,100 Descending FlightAware
03:14PM 42.7930 -86.0290 230° Southwest 368 423 22,500 -2,340 Descending FlightAware
03:15PM 42.7490 -86.1010 230° Southwest 370 426 20,700 -1,800 Descending FlightAware
03:15PM 42.6990 -86.1830 230° Southwest 379 436 20,000 -600 Descending FlightAware
03:16PM 42.6660 -86.2390 231° Southwest 382 440 20,000 -900 Level FlightAware
03:17PM 42.6370 -86.3170 243° Southwest 368 423 19,000 -1,920 Descending FlightAware
03:17PM 42.6190 -86.4110 255° West 364 419 17,500 -2,160 Descending FlightAware
03:18PM 42.6050 -86.4920 257° West 358 412 16,200 -2,040 Descending FlightAware
03:19PM 42.5810 -86.6160 255° West 349 402 14,300 -2,100 Descending FlightAware
03:20PM 42.5670 -86.6950 256° West 349 402 12,900 -2,160 Descending FlightAware
03:20PM 42.5510 -86.7590 251° West 349 402 11,800 -2,040 Descending FlightAware
03:21PM 42.5300 -86.8390 250° West 344 396 10,500 -1,380 Descending FlightAware
03:21PM 42.5060 -86.9260 250° West 336 387 10,000 -360 Descending FlightAware
03:22PM 42.4830 -87.0110 250° West 335 386 10,000  Level FlightAware
03:23PM 42.4640 -87.0800 250° West 336 387 10,000  Level FlightAware
03:23PM 42.4510 -87.1290 250° West 331 381 10,000  Level FlightAware
03:24PM 42.4290 -87.2080 249° West 282 325 10,000 -300 Level FlightAware
03:24PM 42.4220 -87.2340 250° West 277 319 9,700 -1,260 Descending FlightAware
03:25PM 42.4090 -87.2790 249° West 276 318 9,100 -900 Descending FlightAware
03:25PM 42.4000 -87.3120 250° West 279 321 9,000 -180 Descending FlightAware
03:25PM 42.3890 -87.3540 250° West 277 319 9,000  Level FlightAware
03:26PM 42.3750 -87.4030 249° West 276 318 9,000  Level FlightAware
03:26PM 42.3630 -87.4470 250° West 278 320 9,000  Level FlightAware
03:27PM 42.3500 -87.4950 250° West 279 321 9,000  Level FlightAware
03:27PM 42.3400 -87.5140 235° Southwest 279 321 9,000  Level FlightAware
03:27PM 42.3140 -87.5440 220° Southwest 282 325 9,000 -300 Level FlightAware
03:28PM 42.3020 -87.5580 221° Southwest 282 325 8,800 -1,920 Descending FlightAware
03:28PM 42.2680 -87.5960 220° Southwest 284 327 7,600 -2,100 Descending FlightAware
03:29PM 42.2480 -87.6180 219° Southwest 267 307 7,000 -1,500 Descending FlightAware
03:29PM 42.2230 -87.6470 221° Southwest 241 277 6,400 -1,320 Descending FlightAware
03:29PM 42.2030 -87.6680 218° Southwest 229 264 5,900 -1,320 Descending FlightAware
03:30PM 42.1890 -87.6850 222° Southwest 226 260 5,500 -1,380 Descending FlightAware
03:30PM 42.1710 -87.7050 219° Southwest 224 258 5,000 -1,320 Descending FlightAware
03:31PM 42.1490 -87.7290 219° Southwest 221 254 4,400 -1,200 Descending FlightAware
03:31PM 42.1230 -87.7580 220° Southwest 218 251 3,800 -1,140 Descending FlightAware
03:31PM 42.1110 -87.7710 219° Southwest 207 238 3,500 -1,080 Descending FlightAware
03:32PM 42.0900 -87.7940 219° Southwest 190 219 3,000 -1,020 Descending FlightAware
03:32PM 42.0750 -87.8120 222° Southwest 189 217 2,600 -1,080 Descending FlightAware
03:33PM 42.0520 -87.8360 218° Southwest 183 211 2,000 -960 Descending FlightAware
03:33PM 42.0470 -87.8420 222° Southwest 178 205 1,900 -840 Descending FlightAware
03:34PM 42.0260 -87.8650 219° Southwest 150 173 1,400 -840 Descending FlightAware
03:34PM 42.0120 -87.8800 219° Southwest 150 173 1,100 -840 Descending FlightAware
03:34PM 41.9990 -87.8940 219° Southwest 141 162 700 -960 Descending FlightAware
03:35PM 41.9860 -87.9090 221° Southwest 55 63 -1,140 Descending FlightAware
03:36PM 41.9810 -87.9140 217° Southwest 35 40  Level FlightAware